• Join FlightAware (Why Join?)
  • Login
  • US Flag 
08:10PM EDT


 

Airport Tracker/Info


-or-


 

Live Flight TrackerFlight Track Log ✈ UAL4236 ✈ 22-Apr-2013 ✈ KIAH - KELP

Flight Track Log - Related Links

Times and Time Zones

All times are in EDT time to prevent confusion due to time zone crossing. See the UAL4236 flight status page for this flight to view local times or setup timezone preferences in your user account.

Time Position Orientation Groundspeed Altitude Reporting Facility
EDT Latitude Longitude Course Direction KTS MPH feet Rate Location/Type
10:08AM 29.9594 -95.3414 276° West 140 161 700  Level Houston Center
10:09AM 29.8989 -95.3922 216° Southwest 257 296 2,600 1,620 Climbing Houston Center
10:10AM 29.8761 -95.4197 226° Southwest 244 281 3,900 2,040 Climbing Houston Center
10:10AM 29.8533 -95.4458 225° Southwest 261 300 4,500 1,800 Climbing Houston Center
10:11AM 30.0297 -95.7672 277° West  Level FlightAware Approximate
10:11AM 29.8375 -95.4872 246° West 260 299 5,800  Level Houston Center
10:11AM 29.8375 -95.5247 270° West 268 308 7,100 2,760 Climbing Houston Center
10:12AM 30.0397 -95.8763 276° West  Level FlightAware Approximate
10:12AM 29.8350 -95.5842 267° West 250 288 8,700  Level Houston Center
10:13AM 30.0488 -95.9855 276° West  Level FlightAware Approximate
10:13AM 29.8694 -95.6589 298° West 262 302 10,100  Level Houston Center
10:14AM 29.9125 -95.7450 300° West 296 341 10,600 780 Climbing Houston Center
10:15AM 29.9597 -95.8386 300° West 329 379 11,800 1,200 Climbing Houston Center
10:16AM 30.0064 -95.9339 300° West 340 391 13,100 1,440 Climbing Houston Center
10:17AM 30.0606 -96.0433 300° West 336 387 14,800 1,380 Climbing Houston Center
10:18AM 30.0828 -96.1453 284° West 326 375 16,000 1,080 Climbing Houston Center
10:19AM 30.1003 -96.2517 281° West 334 384 17,100 900 Climbing Houston Center
10:20AM 30.1161 -96.3586 280° West 339 390 17,900 840 Climbing Houston Center
10:21AM 30.1339 -96.4669 281° West 344 396 18,900 960 Climbing Houston Center
10:22AM 30.1503 -96.5769 280° West 348 400 19,900 1,020 Climbing Houston Center
10:23AM 30.1708 -96.7103 280° West 354 407 21,100 1,020 Climbing Houston Center
10:24AM 30.1878 -96.8236 280° West 359 413 22,100 1,020 Climbing Houston Center
10:25AM 30.2042 -96.9364 280° West 358 412 23,300 1,080 Climbing Houston Center
10:26AM 30.2214 -97.0481 280° West 356 410 24,400 1,020 Climbing Houston Center
10:27AM 30.2381 -97.1594 280° West 354 407 25,500 1,140 Climbing Houston Center
10:28AM 30.2575 -97.2919 280° West 350 403 26,800 1,140 Climbing Houston Center
10:29AM 30.2728 -97.4017 279° West 348 400 27,900 1,020 Climbing Houston Center
10:30AM 30.2875 -97.5089 279° West 340 391 29,000 1,080 Climbing Houston Center
10:31AM 30.3039 -97.6153 280° West 338 389 30,200 1,140 Climbing Houston Center
10:32AM 30.3181 -97.7206 279° West 333 383 31,400 1,320 Climbing Houston Center
10:33AM 30.3367 -97.8422 280° West 323 372 33,000 1,440 Climbing Houston Center
10:35AM 30.3506 -97.9419 279° West 314 361 34,400 1,140 Climbing Houston Center
10:36AM 30.3636 -98.0369 279° West 302 348 35,400 720 Climbing Houston Center
10:37AM 30.3753 -98.1306 278° West 296 341 35,900 240 Climbing Houston Center
10:38AM 30.3900 -98.2289 280° West 310 357 36,000  Climbing Houston Center
10:39AM 30.4050 -98.3314 280° West 322 371 36,000  Level Houston Center
10:40AM 30.4217 -98.4628 278° West 342 394 36,000  Level Houston Center
10:41AM 30.4372 -98.5806 279° West 353 406 36,000  Level Houston Center
10:42AM 30.4522 -98.6967 279° West 363 418 36,000  Level Houston Center
10:43AM 30.4669 -98.8117 278° West 363 418 36,000  Level Houston Center
10:44AM 30.4794 -98.9178 278° West 358 412 36,000  Level Houston Center
10:45AM 30.4992 -99.0544 280° West 360 414 36,000  Level Houston Center
10:46AM 30.5150 -99.1689 279° West 361 415 36,000  Level Houston Center
10:47AM 30.5278 -99.2831 277° West 361 415 36,000  Level Houston Center
10:48AM 30.5436 -99.3986 279° West 363 418 36,000  Level Houston Center
10:49AM 30.5586 -99.5147 279° West 365 420 36,000  Level Houston Center
10:50AM 30.5775 -99.6536 279° West 366 421 36,000  Level Houston Center
10:51AM 30.5914 -99.7700 278° West 367 422 36,000  Level Houston Center
10:52AM 30.6108 -99.8856 281° West 367 422 36,000  Level Houston Center
10:53AM 30.6361 -100.0003 284° West 371 427 36,000  Level Houston Center
10:54AM 30.6600 -100.1153 284° West 370 426 36,000  Level Houston Center
10:55AM 30.6867 -100.2528 283° West 368 423 36,000  Level Houston Center
10:56AM 30.7103 -100.3661 284° West 366 421 36,000  Level Houston Center
10:57AM 30.7333 -100.4800 283° West 365 420 36,000  Level Houston Center
10:58AM 30.7558 -100.5944 283° West 367 422 36,000  Level Houston Center
10:59AM 30.7775 -100.7086 282° West 364 419 36,000  Level Houston Center
11:00AM 30.8019 -100.8233 284° West 366 421 36,000  Level Houston Center
11:01AM 30.8278 -100.9625 282° West 368 423 36,000  Level Houston Center
11:02AM 30.8500 -101.0789 283° West 369 425 36,000  Level Houston Center
11:04AM 30.8722 -101.1942 283° West 368 423 36,000  Level Houston Center
11:05AM 30.8958 -101.3097 283° West 369 425 36,000  Level Houston Center
11:06AM 30.9169 -101.4275 282° West 370 426 36,000  Level Houston Center
11:06AM 30.9261 -101.4853 280° West 370 426 36,000  Level Albuquerque Center
11:07AM 30.9522 -101.6272 282° West 372 428 36,000  Level Albuquerque Center
11:08AM 30.9753 -101.7453 283° West 374 430 36,000  Level Albuquerque Center
11:09AM 30.9975 -101.8633 282° West 373 429 36,000  Level Albuquerque Center
11:10AM 31.0208 -101.9850 283° West 384 442 36,000  Level Albuquerque Center
11:11AM 31.0422 -102.1050 282° West 382 440 36,000  Level Albuquerque Center
11:12AM 31.0653 -102.2250 283° West 379 436 36,000  Level Albuquerque Center
11:13AM 31.0911 -102.3686 282° West 378 435 36,000  Level Albuquerque Center
11:14AM 31.1131 -102.4889 282° West 379 436 36,000  Level Albuquerque Center
11:15AM 31.1353 -102.6164 282° West 376 433 36,000  Level Albuquerque Center
11:16AM 31.1575 -102.7381 282° West 381 438 36,000  Level Albuquerque Center
11:17AM 31.1794 -102.8606 282° West 385 443 36,000  Level Albuquerque Center
11:18AM 31.2006 -102.9811 282° West 381 438 36,000  Level Albuquerque Center
11:20AM 31.2225 -103.1017 282° West 380 437 36,000  Level Albuquerque Center
11:21AM 31.2433 -103.2225 281° West 380 437 36,000  Level Albuquerque Center
11:22AM 31.2683 -103.3672 281° West 380 437 36,000  Level Albuquerque Center
11:23AM 31.2897 -103.4867 282° West 379 436 36,000  Level Albuquerque Center
11:24AM 31.3106 -103.6067 282° West 377 434 36,000  Level Albuquerque Center
11:25AM 31.3303 -103.7269 281° West 378 435 36,000  Level Albuquerque Center
11:26AM 31.3500 -103.8422 281° West 378 435 36,000  Level Albuquerque Center
11:27AM 31.3744 -103.9869 281° West 380 437 36,000  Level Albuquerque Center
11:28AM 31.3956 -104.1075 282° West 380 437 36,000 -60 Level Albuquerque Center
11:29AM 31.4164 -104.2275 282° West 379 436 35,900 -180 Descending Albuquerque Center
11:30AM 31.4378 -104.3494 282° West 384 442 35,700 -660 Descending Albuquerque Center
11:31AM 31.4539 -104.4661 279° West 372 428 34,600 -1,380 Descending Albuquerque Center
11:32AM 31.4675 -104.5831 278° West 367 422 32,900 -1,920 Descending Albuquerque Center
11:33AM 31.4819 -104.7306 277° West 378 435 30,700 -2,100 Descending Albuquerque Center
11:34AM 31.4958 -104.8625 277° West 403 464 28,600 -2,040 Descending Albuquerque Center
11:35AM 31.5092 -104.9961 277° West 414 476 26,500 -2,160 Descending Albuquerque Center
11:36AM 31.5239 -105.1311 277° West 420 483 24,200 -2,220 Descending Albuquerque Center
11:37AM 31.5361 -105.2636 276° West 416 479 22,000 -2,400 Descending Albuquerque Center
11:38AM 31.5436 -105.3667 275° West 405 466 20,400 -2,520 Descending Albuquerque Center
11:38AM 31.5514 -105.4186 280° West 403 464 19,400 -2,100 Descending Albuquerque Center
11:39AM 31.5586 -105.5128 275° West 392 451 17,900 -1,980 Descending Albuquerque Center
11:39AM 31.5639 -105.5450 281° West 394 453 17,400 -2,340 Descending Albuquerque Center
11:40AM 31.5711 -105.6369 275° West 376 433 15,600 -2,040 Descending Albuquerque Center
11:40AM 31.5758 -105.6664 281° West 379 436 15,300 -1,680 Descending Albuquerque Center
11:41AM 31.5828 -105.7561 275° West 335 386 13,900 -1,800 Descending Albuquerque Center
11:41AM 31.5853 -105.7761 278° West 344 396 13,500 -1,500 Descending Albuquerque Center
11:42AM 31.6128 -105.8483 294° West 293 337 12,400 -1,500 Descending Albuquerque Center
11:42AM 31.6197 -105.8636 298° West 300 345 12,000 -1,560 Descending Albuquerque Center
11:43AM 31.6542 -105.9328 300° West 269 310 10,700 -1,500 Descending Albuquerque Center
11:43AM 31.6589 -105.9403 306° West 276 318 10,500 -1,500 Descending Albuquerque Center
11:44AM 31.6917 -106.0083 300° West 264 304 9,200 -1,680 Descending Albuquerque Center
11:44AM 31.7028 -106.0289 302° West 263 303 8,800 -1,260 Descending Albuquerque Center
11:45AM 31.7350 -106.0956 300° West 238 274 7,600 -1,140 Descending Albuquerque Center
11:46AM 31.7561 -106.1633 290° West 224 258 6,500 -1,080 Descending Albuquerque Center